Time;durP1;ratioP1;P1;durP2;ratioP2;P2;SDS_P1;SDS_P2;PMS_P1;PMS_P2;Temp;Humidity;BMP_temperature;BMP_pressure;BME280_temperature;BME280_humidity;BME280_pressure;Samples;Min_cycle;Max_cycle;Signal;HPM_P1;HPM_P2
2020/12/21 00:00:11;;;;;;;1.42;0.70;;;11.00;73.20;;;;;;2601952;52;21429;-73
2020/12/21 00:02:37;;;;;;;2.47;1.00;;;10.90;72.90;;;;;;2371263;53;20962;-73
2020/12/21 00:05:04;;;;;;;1.70;0.80;;;10.90;72.70;;;;;;2340056;54;20980;-73
2020/12/21 00:07:32;;;;;;;1.62;0.70;;;10.90;72.50;;;;;;2365223;53;20976;-73
2020/12/21 00:09:58;;;;;;;3.12;1.20;;;10.90;72.30;;;;;;2334334;53;20980;-73
2020/12/21 00:12:25;;;;;;;2.00;0.85;;;10.80;72.10;;;;;;2347187;53;20940;-74
2020/12/21 00:14:52;;;;;;;1.75;0.70;;;10.80;72.10;;;;;;2364526;53;20965;-73
2020/12/21 00:17:18;;;;;;;2.17;0.85;;;10.80;72.10;;;;;;2351667;53;21383;-73
2020/12/21 00:19:46;;;;;;;1.75;0.80;;;10.70;71.80;;;;;;2371276;53;21037;-74
2020/12/21 00:22:16;;;;;;;1.52;0.60;;;10.70;71.70;;;;;;2351315;53;20999;-73
2020/12/21 00:24:47;;;;;;;3.50;0.68;;;10.70;71.60;;;;;;2372038;53;20999;-73
2020/12/21 00:27:14;;;;;;;1.83;0.73;;;10.70;71.30;;;;;;2335815;53;20915;-73
2020/12/21 00:29:42;;;;;;;1.73;0.80;;;10.60;71.10;;;;;;2624438;52;20946;-74
2020/12/21 00:32:08;;;;;;;2.45;0.88;;;10.50;71.00;;;;;;2371068;53;21466;-73
2020/12/21 00:34:36;;;;;;;2.12;0.75;;;10.40;70.80;;;;;;2371910;53;20981;-74
2020/12/21 00:37:03;;;;;;;1.23;0.55;;;10.40;70.90;;;;;;2371732;53;20918;-73
2020/12/21 00:39:31;;;;;;;1.52;0.50;;;10.30;70.80;;;;;;2350903;53;21067;-74
2020/12/21 00:41:57;;;;;;;1.30;0.60;;;10.30;70.80;;;;;;2371915;53;21081;-72
2020/12/21 00:44:23;;;;;;;1.35;0.50;;;10.20;70.80;;;;;;2372749;53;21033;-73
2020/12/21 00:46:50;;;;;;;1.87;0.60;;;10.20;70.80;;;;;;2342937;54;21015;-74
2020/12/21 00:49:16;;;;;;;1.05;0.52;;;10.10;70.80;;;;;;2341238;53;20922;-74
2020/12/21 00:51:43;;;;;;;2.10;0.77;;;10.10;70.80;;;;;;2371762;53;20978;-73
2020/12/21 00:54:11;;;;;;;3.80;1.33;;;10.00;70.90;;;;;;2355180;54;21843;-73
2020/12/21 00:56:37;;;;;;;6.07;2.05;;;10.00;71.00;;;;;;2591156;52;20976;-73
2020/12/21 00:59:05;;;;;;;8.38;3.58;;;9.90;72.20;;;;;;2359305;54;20996;-73
2020/12/21 01:01:32;;;;;;;11.27;4.57;;;9.90;72.90;;;;;;2616556;52;20935;-73
2020/12/21 01:04:00;;;;;;;13.65;6.97;;;9.80;72.20;;;;;;2624280;52;20997;-73
2020/12/21 01:06:26;;;;;;;15.32;8.57;;;9.80;72.20;;;;;;2372100;53;21013;-73
2020/12/21 01:08:54;;;;;;;14.55;7.72;;;9.80;72.20;;;;;;2621994;52;21386;-73
2020/12/21 01:11:22;;;;;;;10.80;5.70;;;9.70;72.10;;;;;;2351231;53;21758;-73
2020/12/21 01:13:49;;;;;;;8.63;3.72;;;9.70;72.30;;;;;;2352574;53;21023;-73
2020/12/21 01:16:19;;;;;;;5.78;2.50;;;9.60;72.50;;;;;;2341146;54;20969;-73
2020/12/21 01:18:46;;;;;;;5.12;2.10;;;9.60;72.70;;;;;;2360739;54;20983;-73
2020/12/21 01:21:23;;;;;;;4.37;1.52;;;9.60;72.80;;;;;;2345041;53;20933;-72
2020/12/21 01:23:50;;;;;;;3.17;1.12;;;9.60;72.80;;;;;;2362351;53;20946;-73
2020/12/21 01:26:16;;;;;;;2.75;1.10;;;9.60;72.70;;;;;;2371876;53;20950;-73
2020/12/21 01:28:43;;;;;;;1.92;0.80;;;9.50;72.60;;;;;;2338833;53;21008;-73
2020/12/21 01:31:09;;;;;;;2.67;0.90;;;9.50;72.60;;;;;;2617361;52;20999;-73
2020/12/21 01:33:36;;;;;;;2.40;0.88;;;9.50;72.60;;;;;;2371929;53;21733;-73
2020/12/21 01:36:03;;;;;;;3.95;0.70;;;9.40;72.60;;;;;;2343823;53;21084;-73
2020/12/21 01:38:29;;;;;;;1.90;0.80;;;9.40;72.70;;;;;;2357838;53;20938;-73
2020/12/21 01:40:56;;;;;;;1.35;0.57;;;9.40;72.80;;;;;;2346785;54;21482;-73
2020/12/21 01:43:22;;;;;;;2.37;0.70;;;9.40;72.80;;;;;;2347105;53;21772;-73
2020/12/21 01:45:49;;;;;;;1.73;0.73;;;9.30;72.80;;;;;;2361017;53;21096;-73
2020/12/21 01:48:15;;;;;;;1.62;0.60;;;9.30;72.80;;;;;;2363861;53;21114;-73
2020/12/21 01:50:42;;;;;;;1.92;0.70;;;9.30;72.90;;;;;;2340541;54;20939;-73
2020/12/21 01:53:10;;;;;;;2.87;0.88;;;9.30;72.90;;;;;;2597850;52;21806;-73
2020/12/21 01:55:40;;;;;;;2.10;0.75;;;9.30;72.80;;;;;;2369485;53;21026;-74
2020/12/21 01:58:07;;;;;;;1.95;0.80;;;9.20;72.50;;;;;;2613831;52;21020;-73
2020/12/21 02:00:33;;;;;;;1.90;0.70;;;9.20;72.50;;;;;;2607064;52;20946;-73
2020/12/21 02:03:02;;;;;;;2.25;0.90;;;9.20;72.50;;;;;;2372031;53;20938;-73
2020/12/21 02:05:30;;;;;;;5.18;2.37;;;9.10;72.60;;;;;;2624166;52;21772;-73
2020/12/21 02:07:56;;;;;;;5.68;2.60;;;9.10;73.10;;;;;;2624491;52;21025;-74
2020/12/21 02:10:23;;;;;;;6.57;2.83;;;9.10;73.90;;;;;;2358037;53;21422;-73
2020/12/21 02:12:49;;;;;;;6.90;2.40;;;9.10;74.60;;;;;;2359267;53;20951;-74
2020/12/21 02:15:18;;;;;;;6.05;2.80;;;9.10;74.90;;;;;;2556953;53;21043;-73
2020/12/21 02:17:46;;;;;;;5.90;2.55;;;9.20;75.20;;;;;;2623630;52;21378;-73
2020/12/21 02:20:12;;;;;;;4.10;1.77;;;9.20;75.30;;;;;;2354192;53;21026;-73
2020/12/21 02:22:40;;;;;;;4.93;1.55;;;9.30;75.60;;;;;;2620142;52;20986;-73
2020/12/21 02:25:06;;;;;;;3.67;1.60;;;9.30;75.70;;;;;;2355035;53;21023;-73
2020/12/21 02:27:32;;;;;;;3.53;1.50;;;9.30;75.70;;;;;;2590295;52;20979;-74
2020/12/21 02:29:59;;;;;;;4.78;1.90;;;9.40;75.80;;;;;;2624756;52;20958;-73
2020/12/21 02:32:26;;;;;;;3.40;1.52;;;9.40;76.00;;;;;;2351870;53;20992;-73
2020/12/21 02:34:53;;;;;;;3.03;1.20;;;9.40;76.20;;;;;;2371539;53;21049;-73
2020/12/21 02:37:21;;;;;;;5.75;2.17;;;9.50;76.40;;;;;;2624015;52;20962;-74
2020/12/21 02:39:47;;;;;;;5.20;2.25;;;9.50;76.30;;;;;;2370552;53;21025;-73
2020/12/21 02:42:14;;;;;;;3.78;1.60;;;9.60;76.50;;;;;;2371141;53;22370;-73
2020/12/21 02:44:41;;;;;;;2.95;1.20;;;9.60;76.50;;;;;;2371911;53;20946;-73
2020/12/21 02:47:07;;;;;;;3.53;1.20;;;9.70;76.60;;;;;;2624325;52;21285;-74
2020/12/21 02:49:34;;;;;;;2.78;0.90;;;9.70;76.80;;;;;;2351880;53;21007;-73
2020/12/21 02:52:01;;;;;;;3.75;1.10;;;9.80;77.00;;;;;;2337400;53;20996;-73
2020/12/21 02:54:27;;;;;;;2.78;1.05;;;9.90;77.00;;;;;;2590561;52;20939;-73
2020/12/21 02:56:53;;;;;;;3.00;1.25;;;9.90;77.00;;;;;;2371981;53;20918;-73
2020/12/21 02:59:23;;;;;;;2.50;1.00;;;10.00;76.00;;;;;;2618254;52;21000;-73
2020/12/21 03:01:49;;;;;;;4.40;0.88;;;10.00;75.90;;;;;;2601435;52;20933;-73
2020/12/21 03:04:17;;;;;;;1.50;0.65;;;10.10;75.90;;;;;;2371602;53;20938;-73
2020/12/21 03:06:43;;;;;;;1.87;0.80;;;10.10;75.80;;;;;;2624126;52;20945;-74
2020/12/21 03:09:11;;;;;;;1.85;0.70;;;10.20;75.80;;;;;;2624635;52;20997;-74
2020/12/21 03:11:45;;;;;;;2.97;0.93;;;10.20;75.70;;;;;;2371832;53;21160;-74
2020/12/21 03:14:12;;;;;;;1.55;0.57;;;10.30;75.60;;;;;;2335043;53;21532;-73
2020/12/21 03:16:38;;;;;;;2.92;0.70;;;10.30;75.50;;;;;;2603862;52;21721;-73
2020/12/21 03:19:05;;;;;;;1.75;0.62;;;10.30;75.30;;;;;;2342021;54;20927;-73
2020/12/21 03:21:32;;;;;;;2.30;0.85;;;10.40;75.30;;;;;;2340172;54;21787;-74
2020/12/21 03:23:59;;;;;;;1.37;0.55;;;10.40;75.20;;;;;;2366473;53;21509;-74
2020/12/21 03:26:26;;;;;;;1.98;0.80;;;10.40;75.10;;;;;;2358996;53;21036;-74
2020/12/21 03:28:52;;;;;;;1.95;0.80;;;10.50;75.10;;;;;;2616350;52;21386;-73
2020/12/21 03:31:18;;;;;;;2.05;0.80;;;10.50;74.90;;;;;;2624195;52;21018;-73
2020/12/21 03:33:45;;;;;;;2.58;0.90;;;10.50;74.70;;;;;;2600040;52;20947;-74
2020/12/21 03:36:11;;;;;;;1.90;0.80;;;10.50;74.30;;;;;;2369929;53;20954;-73
2020/12/21 03:38:41;;;;;;;2.78;0.80;;;10.50;74.10;;;;;;2356578;53;20935;-74
2020/12/21 03:41:07;;;;;;;1.90;0.77;;;10.50;73.80;;;;;;2616510;52;20922;-74
2020/12/21 03:43:36;;;;;;;2.47;0.90;;;10.50;73.80;;;;;;2624100;52;20997;-73
2020/12/21 03:46:04;;;;;;;2.67;0.90;;;10.50;73.70;;;;;;2624311;52;20970;-73
2020/12/21 03:48:33;;;;;;;2.78;0.90;;;10.50;73.60;;;;;;2611278;52;20931;-74
2020/12/21 03:50:59;;;;;;;2.90;0.77;;;10.50;73.70;;;;;;2606439;52;20969;-73
2020/12/21 03:53:27;;;;;;;2.50;0.82;;;10.50;73.70;;;;;;2350944;54;20910;-74
2020/12/21 03:56:02;;;;;;;2.47;0.90;;;10.50;73.60;;;;;;2612287;52;20999;-73
2020/12/21 03:58:29;;;;;;;2.85;0.98;;;10.50;73.60;;;;;;2580880;52;20934;-73
2020/12/21 04:00:56;;;;;;;1.65;0.62;;;10.50;73.60;;;;;;2622551;52;21034;-74
2020/12/21 04:03:25;;;;;;;3.15;0.90;;;10.50;73.60;;;;;;2353065;53;20963;-74
2020/12/21 04:05:52;;;;;;;1.90;0.70;;;10.50;73.60;;;;;;2347554;53;21036;-74
2020/12/21 04:08:19;;;;;;;2.22;0.70;;;10.50;73.70;;;;;;2604527;52;20938;-73
2020/12/21 04:10:46;;;;;;;2.22;0.80;;;10.50;73.60;;;;;;2624573;52;21044;-73
2020/12/21 04:13:13;;;;;;;2.33;0.75;;;10.50;73.50;;;;;;2624652;52;20961;-73
2020/12/21 04:15:40;;;;;;;1.98;0.73;;;10.50;73.40;;;;;;2624884;52;20978;-74
2020/12/21 04:18:07;;;;;;;1.77;0.70;;;10.50;73.40;;;;;;2624817;52;20914;-73
2020/12/21 04:20:33;;;;;;;2.10;0.70;;;10.50;73.10;;;;;;2612539;52;20931;-73
2020/12/21 04:23:02;;;;;;;2.12;0.77;;;10.50;73.00;;;;;;2581157;52;20950;-73
2020/12/21 04:25:29;;;;;;;1.85;0.77;;;10.40;72.80;;;;;;2624627;52;21058;-74
2020/12/21 04:27:55;;;;;;;1.37;0.60;;;10.40;72.70;;;;;;2373200;53;20953;-74
2020/12/21 04:30:24;;;;;;;1.52;0.68;;;10.40;72.60;;;;;;2571971;53;20947;-74
2020/12/21 04:32:52;;;;;;;2.37;0.77;;;10.30;72.60;;;;;;2595346;52;21727;-74
2020/12/21 04:35:21;;;;;;;1.52;0.70;;;10.30;72.70;;;;;;2585295;52;20969;-74
2020/12/21 04:37:47;;;;;;;1.40;0.60;;;10.30;73.50;;;;;;2345763;53;21365;-74
2020/12/21 04:40:14;;;;;;;3.20;1.00;;;10.30;72.90;;;;;;2371305;53;21751;-74
2020/12/21 04:42:48;;;;;;;3.33;0.90;;;10.30;73.00;;;;;;2348764;53;20934;-73
2020/12/21 04:45:15;;;;;;;2.50;0.80;;;10.30;73.00;;;;;;2372000;53;21450;-73
2020/12/21 04:47:43;;;;;;;2.25;0.80;;;10.30;73.30;;;;;;2371826;53;20902;-73
2020/12/21 04:50:13;;;;;;;2.83;1.02;;;10.30;73.30;;;;;;2611780;52;20963;-74
2020/12/21 04:52:55;;;;;;;2.95;1.17;;;10.30;73.40;;;;;;2325843;55;20973;-74
2020/12/21 04:55:22;;;;;;;3.08;1.37;;;10.30;73.30;;;;;;2581413;53;20983;-73
2020/12/21 04:58:03;;;;;;;2.05;0.90;;;10.30;73.60;;;;;;2616508;52;20910;-73
2020/12/21 05:00:30;;;;;;;2.50;0.85;;;10.30;73.60;;;;;;2624924;52;20978;-73
2020/12/21 05:02:57;;;;;;;2.50;0.90;;;10.30;73.70;;;;;;2624471;52;20954;-73
2020/12/21 05:05:30;;;;;;;3.97;1.30;;;10.30;73.70;;;;;;2599212;52;20992;-73
2020/12/21 05:07:59;;;;;;;2.83;0.98;;;10.30;73.70;;;;;;2591506;52;20961;-73
2020/12/21 05:10:25;;;;;;;2.67;1.08;;;10.30;73.80;;;;;;2596992;52;20926;-73
2020/12/21 05:14:03;;;;;;;2.40;0.80;;;10.30;73.60;;;;;;2361741;53;20948;-74
2020/12/21 05:16:32;;;;;;;2.53;1.00;;;10.30;72.90;;;;;;2598153;52;20969;-73
2020/12/21 05:18:59;;;;;;;2.40;0.90;;;10.30;73.00;;;;;;2354570;53;21050;-74
2020/12/21 05:21:27;;;;;;;1.77;0.80;;;10.30;73.40;;;;;;2371152;53;20950;-73
2020/12/21 05:23:59;;;;;;;1.90;0.73;;;10.30;72.50;;;;;;2351853;53;20912;-73
2020/12/21 05:26:34;;;;;;;3.53;0.88;;;10.30;72.40;;;;;;2350476;53;20932;-73
2020/12/21 05:29:03;;;;;;;1.90;0.80;;;10.20;72.10;;;;;;2623459;52;20939;-73
2020/12/21 05:31:30;;;;;;;4.82;0.95;;;10.20;72.00;;;;;;2349151;53;20918;-73
2020/12/21 05:33:59;;;;;;;2.30;0.90;;;10.20;71.90;;;;;;2369860;53;21087;-74
2020/12/21 05:36:33;;;;;;;3.50;1.48;;;10.10;71.80;;;;;;2602761;52;20954;-73
2020/12/21 05:39:04;;;;;;;2.67;1.10;;;10.10;71.80;;;;;;2582955;53;20991;-73
2020/12/21 05:41:31;;;;;;;2.05;1.02;;;10.00;71.60;;;;;;2582619;52;20906;-73
2020/12/21 05:44:03;;;;;;;2.72;1.23;;;10.00;71.50;;;;;;2372000;53;21831;-73
2020/12/21 05:46:30;;;;;;;4.03;1.58;;;10.00;71.40;;;;;;2320154;55;20901;-73
2020/12/21 05:48:57;;;;;;;3.00;1.40;;;9.90;72.30;;;;;;2331412;54;21015;-73
2020/12/21 05:51:33;;;;;;;3.40;1.60;;;9.90;72.30;;;;;;2578317;52;21256;-73
2020/12/21 05:54:01;;;;;;;3.28;1.40;;;9.80;72.10;;;;;;2343396;53;21528;-73
2020/12/21 05:56:35;;;;;;;2.95;1.40;;;9.80;72.30;;;;;;2330743;53;20945;-73
2020/12/21 05:59:03;;;;;;;3.60;1.50;;;9.70;72.30;;;;;;2301377;54;21041;-73
2020/12/21 06:01:30;;;;;;;3.42;1.35;;;9.70;72.40;;;;;;2371090;53;21034;-73
2020/12/21 06:04:00;;;;;;;4.32;1.48;;;9.60;73.20;;;;;;2341930;53;20925;-73
2020/12/21 06:06:29;;;;;;;3.78;1.58;;;9.60;72.60;;;;;;2361209;53;20974;-73
2020/12/21 06:08:57;;;;;;;2.95;1.23;;;9.60;72.80;;;;;;2364333;53;21435;-73
2020/12/21 06:11:31;;;;;;;3.58;1.58;;;9.50;72.70;;;;;;2345475;53;20968;-73
2020/12/21 06:14:14;;;;;;;4.62;1.60;;;9.50;72.60;;;;;;2594740;52;21065;-73
2020/12/21 06:16:41;;;;;;;2.97;1.37;;;9.50;72.60;;;;;;2367012;53;20986;-73
2020/12/21 06:19:11;;;;;;;2.70;1.35;;;9.40;72.60;;;;;;2372011;53;21005;-73
2020/12/21 06:21:56;;;;;;;3.20;1.27;;;9.40;72.70;;;;;;2595344;52;20930;-72
2020/12/21 06:24:23;;;;;;;4.37;1.20;;;9.40;72.70;;;;;;2372219;53;20970;-73
2020/12/21 06:26:50;;;;;;;3.90;1.50;;;9.40;73.00;;;;;;2623682;52;20992;-73
2020/12/21 06:29:24;;;;;;;2.83;1.35;;;9.40;73.10;;;;;;2368557;53;20976;-73
2020/12/21 06:31:54;;;;;;;5.28;1.60;;;9.30;72.90;;;;;;2597359;52;21023;-73
2020/12/21 06:34:34;;;;;;;2.42;1.10;;;9.30;73.00;;;;;;2356870;53;20946;-73
2020/12/21 06:37:16;;;;;;;2.92;1.10;;;9.30;73.00;;;;;;2624883;52;20970;-73
2020/12/21 06:39:42;;;;;;;3.05;1.27;;;9.30;73.10;;;;;;2375470;53;20998;-73
2020/12/21 06:42:13;;;;;;;3.28;1.80;;;9.30;73.10;;;;;;2624792;52;21411;-73
2020/12/21 06:44:41;;;;;;;4.22;2.03;;;9.30;73.10;;;;;;2625498;52;20907;-73
2020/12/21 06:47:12;;;;;;;3.65;1.90;;;9.30;73.30;;;;;;2624799;52;20977;-73
2020/12/21 06:49:39;;;;;;;4.62;2.00;;;9.30;73.60;;;;;;2373126;53;20934;-73
2020/12/21 06:52:08;;;;;;;4.75;2.03;;;9.30;73.80;;;;;;2624585;52;21470;-73
2020/12/21 06:54:35;;;;;;;4.45;1.98;;;9.20;73.90;;;;;;2371399;53;21358;-73
2020/12/21 06:57:02;;;;;;;4.78;2.40;;;9.20;74.00;;;;;;2595639;52;20946;-73
2020/12/21 06:59:31;;;;;;;3.72;1.95;;;9.30;74.10;;;;;;2335109;54;20955;-73
2020/12/21 07:01:58;;;;;;;4.28;2.55;;;9.30;74.00;;;;;;2620638;52;20974;-73
2020/12/21 07:04:27;;;;;;;4.68;2.78;;;9.30;73.90;;;;;;2609038;52;20939;-73
2020/12/21 07:06:55;;;;;;;3.85;1.85;;;9.30;73.80;;;;;;2612901;52;21045;-73
2020/12/21 07:09:25;;;;;;;5.53;2.55;;;9.30;73.80;;;;;;2372210;53;20950;-73
2020/12/21 07:11:56;;;;;;;5.37;2.33;;;9.30;73.60;;;;;;2624557;52;21018;-73
2020/12/21 07:14:23;;;;;;;3.78;2.03;;;9.20;73.30;;;;;;2372007;53;21493;-73
2020/12/21 07:17:09;;;;;;;3.58;1.83;;;9.20;73.10;;;;;;2623064;52;20978;-73
2020/12/21 07:19:36;;;;;;;3.47;1.83;;;9.20;73.10;;;;;;2355125;53;20948;-73
2020/12/21 07:22:04;;;;;;;4.20;2.55;;;9.20;73.00;;;;;;2350162;53;20981;-73
2020/12/21 07:24:35;;;;;;;3.78;2.12;;;9.20;73.00;;;;;;2356195;53;20981;-74
2020/12/21 07:27:03;;;;;;;4.75;2.45;;;9.10;72.90;;;;;;2595494;52;21078;-73
2020/12/21 07:29:39;;;;;;;4.68;2.50;;;9.10;72.80;;;;;;2371084;53;20998;-73
2020/12/21 07:32:05;;;;;;;4.97;2.80;;;9.10;73.50;;;;;;2624567;52;21771;-73
2020/12/21 07:34:32;;;;;;;3.78;2.17;;;9.10;73.00;;;;;;2605935;52;20951;-73
2020/12/21 07:37:06;;;;;;;5.15;3.12;;;9.10;73.10;;;;;;2613369;52;20909;-74
2020/12/21 07:39:33;;;;;;;4.95;2.47;;;9.00;73.10;;;;;;2622273;52;21830;-73
2020/12/21 07:42:03;;;;;;;5.55;2.70;;;9.00;73.80;;;;;;2350287;53;20990;-73
2020/12/21 07:44:31;;;;;;;3.85;2.47;;;9.10;73.20;;;;;;2355638;53;21337;-73
2020/12/21 07:47:05;;;;;;;5.85;3.00;;;9.00;73.20;;;;;;2585233;52;20920;-73
2020/12/21 07:49:32;;;;;;;6.37;3.30;;;9.00;73.30;;;;;;2367470;53;21531;-73
2020/12/21 07:52:00;;;;;;;6.60;3.55;;;9.00;73.40;;;;;;2346586;53;20947;-73
2020/12/21 07:54:27;;;;;;;6.30;4.00;;;9.00;73.50;;;;;;2347963;54;21762;-73
2020/12/21 07:57:00;;;;;;;8.77;5.00;;;9.00;73.50;;;;;;2348655;53;20939;-73
2020/12/21 07:59:26;;;;;;;8.90;5.55;;;9.00;73.50;;;;;;2596884;52;20942;-73
2020/12/21 08:01:59;;;;;;;8.68;4.85;;;9.00;73.80;;;;;;2352341;54;20938;-73
2020/12/21 08:04:29;;;;;;;5.82;3.62;;;9.00;73.70;;;;;;2595785;52;21016;-74
2020/12/21 08:07:08;;;;;;;8.10;4.25;;;9.00;73.80;;;;;;2326775;54;21014;-73
2020/12/21 08:09:37;;;;;;;9.15;5.32;;;9.00;73.80;;;;;;2362336;53;21006;-73
2020/12/21 08:12:11;;;;;;;8.80;5.07;;;9.00;74.00;;;;;;2354142;54;21465;-73
2020/12/21 08:14:37;;;;;;;9.88;5.97;;;9.00;74.10;;;;;;2340797;55;21026;-73
2020/12/21 08:17:19;;;;;;;10.07;6.10;;;9.00;74.30;;;;;;2356787;53;21213;-73
2020/12/21 08:19:52;;;;;;;9.02;6.03;;;9.10;74.50;;;;;;2371698;53;20969;-73
2020/12/21 08:22:26;;;;;;;8.95;5.85;;;9.10;74.70;;;;;;2371390;53;21271;-73
2020/12/21 08:25:11;;;;;;;8.82;5.97;;;9.10;74.80;;;;;;2623161;52;20938;-72
2020/12/21 08:27:42;;;;;;;7.03;4.70;;;9.20;74.90;;;;;;2623926;52;21012;-73
2020/12/21 08:30:18;;;;;;;6.18;4.25;;;9.20;75.00;;;;;;2371536;53;20966;-73
2020/12/21 08:32:45;;;;;;;8.50;5.57;;;9.20;75.10;;;;;;2346520;53;21008;-73
2020/12/21 08:35:12;;;;;;;8.45;5.43;;;9.30;75.20;;;;;;2604459;52;20962;-74
2020/12/21 08:37:38;;;;;;;8.77;5.55;;;9.30;75.10;;;;;;2350104;53;21954;-73
2020/12/21 08:40:15;;;;;;;8.25;5.68;;;9.30;75.10;;;;;;2367123;53;21043;-73
2020/12/21 08:42:42;;;;;;;10.48;6.62;;;9.40;75.10;;;;;;2341241;54;20991;-74
2020/12/21 08:45:09;;;;;;;10.02;6.75;;;9.40;75.20;;;;;;2619156;52;21034;-73
2020/12/21 08:47:36;;;;;;;10.20;6.53;;;9.40;75.20;;;;;;2371281;53;20917;-73
2020/12/21 08:50:03;;;;;;;10.52;7.00;;;9.40;75.20;;;;;;2371781;53;20954;-73
2020/12/21 08:52:30;;;;;;;11.05;7.43;;;9.50;75.30;;;;;;2595277;52;21013;-73
2020/12/21 08:54:58;;;;;;;8.30;5.62;;;9.50;75.20;;;;;;2624576;52;21014;-73
2020/12/21 08:57:24;;;;;;;9.60;5.90;;;9.50;75.10;;;;;;2571425;52;20945;-73
2020/12/21 08:59:51;;;;;;;8.27;5.43;;;9.60;75.20;;;;;;2608814;52;21015;-73
2020/12/21 09:02:19;;;;;;;10.20;6.60;;;9.60;75.20;;;;;;2353208;53;20971;-73
2020/12/21 09:04:46;;;;;;;10.45;5.72;;;9.60;75.20;;;;;;2568328;53;21445;-73
2020/12/21 09:07:18;;;;;;;12.57;6.75;;;9.70;75.30;;;;;;2356674;53;20950;-73
2020/12/21 09:09:47;;;;;;;9.00;5.62;;;9.70;75.20;;;;;;2370877;53;20948;-73
2020/12/21 09:12:14;;;;;;;9.38;6.18;;;9.70;75.20;;;;;;2334337;53;20966;-73
2020/12/21 09:14:41;;;;;;;8.57;5.53;;;9.80;75.50;;;;;;2371990;53;20942;-74
2020/12/21 09:17:08;;;;;;;8.80;5.93;;;9.80;75.60;;;;;;2624790;52;20917;-73
2020/12/21 09:19:36;;;;;;;7.35;4.78;;;9.80;75.70;;;;;;2370433;53;20966;-73
2020/12/21 09:22:03;;;;;;;7.00;4.40;;;9.90;75.80;;;;;;2349997;54;21021;-73
2020/12/21 09:24:30;;;;;;;8.00;5.05;;;9.90;75.90;;;;;;2372065;53;20961;-73
2020/12/21 09:26:57;;;;;;;8.07;4.97;;;10.00;74.90;;;;;;2624700;52;21415;-73
2020/12/21 09:29:27;;;;;;;6.75;4.47;;;10.00;74.90;;;;;;2617543;52;20954;-73
2020/12/21 09:31:54;;;;;;;6.37;3.92;;;10.00;74.80;;;;;;2348304;53;20945;-73
2020/12/21 09:34:20;;;;;;;6.78;3.83;;;10.10;74.90;;;;;;2605940;52;21454;-73
2020/12/21 09:36:47;;;;;;;6.25;4.28;;;10.10;74.90;;;;;;2624786;52;20942;-73
2020/12/21 09:39:17;;;;;;;9.30;4.62;;;10.20;75.00;;;;;;2374678;53;21018;-73
2020/12/21 09:41:43;;;;;;;6.20;4.22;;;10.20;75.00;;;;;;2366396;53;20936;-73
2020/12/21 09:44:10;;;;;;;6.20;3.72;;;10.30;75.20;;;;;;2341925;54;20991;-74
2020/12/21 09:46:38;;;;;;;7.30;4.25;;;10.30;75.20;;;;;;2351074;54;21006;-73
2020/12/21 09:49:04;;;;;;;6.43;3.67;;;10.40;75.30;;;;;;2624681;52;21492;-74
2020/12/21 09:51:31;;;;;;;6.97;4.03;;;10.40;75.30;;;;;;2372440;53;20945;-73
2020/12/21 09:53:58;;;;;;;8.07;5.60;;;10.30;75.10;;;;;;2351450;53;20974;-74
2020/12/21 09:56:25;;;;;;;7.75;4.80;;;10.50;75.20;;;;;;2368176;53;21508;-74
2020/12/21 09:58:52;;;;;;;10.48;6.75;;;10.60;75.20;;;;;;2605384;52;20965;-74
2020/12/21 10:01:18;;;;;;;9.10;6.00;;;10.60;75.00;;;;;;2351638;53;21007;-73
2020/12/21 10:03:45;;;;;;;9.52;5.10;;;10.60;74.90;;;;;;2624729;52;21008;-73
2020/12/21 10:06:11;;;;;;;7.95;5.30;;;10.70;74.90;;;;;;2352016;53;21898;-74
2020/12/21 10:08:38;;;;;;;9.95;6.97;;;10.70;74.90;;;;;;2363609;53;20948;-74
2020/12/21 10:11:05;;;;;;;10.70;6.57;;;10.70;74.80;;;;;;2358552;53;20942;-74
2020/12/21 10:13:35;;;;;;;9.57;6.47;;;10.80;75.20;;;;;;2372517;53;20958;-73
2020/12/21 10:16:01;;;;;;;9.73;5.97;;;10.80;74.70;;;;;;2623964;52;21033;-74
2020/12/21 10:18:29;;;;;;;9.93;6.03;;;10.80;74.60;;;;;;2595240;52;20960;-74
2020/12/21 10:20:55;;;;;;;8.40;5.18;;;10.80;74.60;;;;;;2370637;53;21016;-73
2020/12/21 10:23:22;;;;;;;8.02;5.70;;;10.80;74.60;;;;;;2624244;52;21086;-73
2020/12/21 10:25:48;;;;;;;9.25;5.60;;;10.90;74.70;;;;;;2371521;53;21751;-73
2020/12/21 10:28:15;;;;;;;8.68;5.25;;;10.90;74.70;;;;;;2371452;53;21005;-73
2020/12/21 10:30:42;;;;;;;10.65;6.93;;;10.90;74.70;;;;;;2371575;53;21077;-73
2020/12/21 10:33:08;;;;;;;11.35;7.30;;;11.00;74.70;;;;;;2623525;52;21969;-74
2020/12/21 10:35:38;;;;;;;13.52;8.85;;;11.00;74.60;;;;;;2349183;53;20953;-73
2020/12/21 10:38:05;;;;;;;12.27;8.40;;;11.00;74.40;;;;;;2349791;53;20943;-73
2020/12/21 10:40:32;;;;;;;10.80;6.70;;;11.00;74.30;;;;;;2362163;53;20986;-74
2020/12/21 10:42:59;;;;;;;12.13;6.78;;;11.00;74.20;;;;;;2370316;53;20930;-73
2020/12/21 10:45:25;;;;;;;12.37;7.12;;;11.00;74.90;;;;;;2356963;53;21011;-73
2020/12/21 10:47:52;;;;;;;8.10;5.12;;;11.00;73.80;;;;;;2366556;53;21003;-73
2020/12/21 10:50:19;;;;;;;9.23;5.65;;;11.10;73.80;;;;;;2623652;52;21013;-73
2020/12/21 10:52:45;;;;;;;8.55;5.57;;;11.10;73.80;;;;;;2351187;54;20958;-74
2020/12/21 10:55:12;;;;;;;8.57;5.20;;;11.00;73.70;;;;;;2623373;52;20973;-74
2020/12/21 10:57:39;;;;;;;9.30;6.20;;;11.00;73.80;;;;;;2351111;53;20963;-74
2020/12/21 11:00:10;;;;;;;8.80;5.47;;;11.10;73.80;;;;;;2366794;53;21535;-74
2020/12/21 11:02:37;;;;;;;12.13;6.35;;;11.10;74.00;;;;;;2606928;52;20950;-74
2020/12/21 11:05:04;;;;;;;9.85;6.03;;;11.10;73.70;;;;;;2599568;52;21008;-73
2020/12/21 11:07:35;;;;;;;12.13;6.15;;;11.10;73.60;;;;;;2368012;54;21317;-74
2020/12/21 11:10:08;;;;;;;11.82;6.40;;;11.00;73.50;;;;;;2368521;53;21043;-73
2020/12/21 11:12:35;;;;;;;9.45;5.82;;;11.00;73.50;;;;;;2577539;52;21440;-74
2020/12/21 11:15:02;;;;;;;8.57;5.75;;;11.00;73.60;;;;;;2371573;53;20945;-74
2020/12/21 11:17:32;;;;;;;11.55;6.97;;;11.00;73.80;;;;;;2369540;53;20963;-74
2020/12/21 11:19:59;;;;;;;8.10;4.65;;;11.00;73.90;;;;;;2337511;54;20953;-73
2020/12/21 11:22:26;;;;;;;8.73;3.30;;;11.00;74.20;;;;;;2350512;53;21009;-73
2020/12/21 11:24:53;;;;;;;5.15;2.50;;;11.10;74.70;;;;;;2357667;53;21714;-74
2020/12/21 11:27:20;;;;;;;3.22;1.73;;;11.10;75.00;;;;;;2340281;54;21025;-74
2020/12/21 11:29:49;;;;;;;6.72;1.70;;;11.20;75.60;;;;;;2357891;53;21712;-74
2020/12/21 11:32:20;;;;;;;2.65;1.02;;;11.20;76.00;;;;;;2364910;53;21517;-74
2020/12/21 11:34:47;;;;;;;3.15;1.20;;;11.30;76.50;;;;;;2340536;53;20962;-73
2020/12/21 11:37:17;;;;;;;3.45;1.25;;;11.40;76.90;;;;;;2595304;52;21679;-74
2020/12/21 11:39:44;;;;;;;3.12;1.27;;;11.50;76.90;;;;;;2366778;53;20980;-73
2020/12/21 11:42:11;;;;;;;3.00;1.12;;;11.60;77.00;;;;;;2340309;53;21490;-74
2020/12/21 11:44:38;;;;;;;3.75;1.30;;;11.70;77.00;;;;;;2350624;53;20950;-73
2020/12/21 11:47:11;;;;;;;4.45;1.25;;;11.80;77.00;;;;;;2376129;53;21017;-73
2020/12/21 11:49:40;;;;;;;4.90;1.45;;;11.90;76.80;;;;;;2567557;52;20927;-74
2020/12/21 11:52:07;;;;;;;4.37;1.52;;;12.00;77.00;;;;;;2335817;54;21042;-74
2020/12/21 11:54:35;;;;;;;3.20;1.45;;;12.10;77.00;;;;;;2619135;52;21049;-74
2020/12/21 11:57:03;;;;;;;3.70;1.30;;;12.20;77.00;;;;;;2373303;56;21125;-73
2020/12/21 11:59:29;;;;;;;3.67;1.10;;;12.20;76.80;;;;;;2352991;53;21622;-74
2020/12/21 12:01:58;;;;;;;2.53;1.05;;;12.30;76.80;;;;;;2569675;53;21848;-74
2020/12/21 12:04:25;;;;;;;3.42;0.80;;;12.40;76.90;;;;;;2580328;52;20944;-74
2020/12/21 12:06:53;;;;;;;2.25;1.02;;;12.50;77.00;;;;;;2365987;53;20967;-73
2020/12/21 12:09:25;;;;;;;1.65;0.70;;;12.60;77.10;;;;;;2374317;53;21454;-73
2020/12/21 12:11:52;;;;;;;2.35;0.62;;;12.70;77.00;;;;;;2374771;53;20974;-74
2020/12/21 12:14:18;;;;;;;2.05;0.62;;;12.80;77.50;;;;;;2371461;53;21481;-74
2020/12/21 12:16:45;;;;;;;1.50;0.60;;;12.90;77.70;;;;;;2343553;53;21685;-74
2020/12/21 12:19:13;;;;;;;2.60;1.30;;;13.00;77.70;;;;;;2583959;53;21906;-74
2020/12/21 12:21:39;;;;;;;2.92;1.30;;;13.10;77.40;;;;;;2347071;53;20989;-74
2020/12/21 12:24:06;;;;;;;3.90;1.55;;;13.20;77.20;;;;;;2620924;52;20962;-74
2020/12/21 12:26:33;;;;;;;3.72;1.30;;;13.30;76.90;;;;;;2595938;52;21120;-74
2020/12/21 12:29:00;;;;;;;3.28;0.90;;;13.40;76.30;;;;;;2348267;53;21001;-73
2020/12/21 12:31:26;;;;;;;4.43;0.90;;;13.50;75.90;;;;;;2362930;53;21087;-73
2020/12/21 12:33:56;;;;;;;4.03;1.10;;;13.50;76.60;;;;;;2338953;54;20922;-73
2020/12/21 12:36:24;;;;;;;4.95;1.52;;;13.60;75.70;;;;;;2623381;52;20962;-74
2020/12/21 12:38:51;;;;;;;4.35;2.25;;;13.70;76.00;;;;;;2360092;53;20975;-74
2020/12/21 12:41:17;;;;;;;6.05;2.65;;;13.70;75.90;;;;;;2350197;53;21119;-73
2020/12/21 12:43:44;;;;;;;7.70;3.50;;;13.70;75.60;;;;;;2601836;52;20968;-74
2020/12/21 12:46:11;;;;;;;9.23;4.05;;;13.80;75.50;;;;;;2571991;53;20983;-74
2020/12/21 12:48:37;;;;;;;6.55;3.95;;;13.80;75.20;;;;;;2347367;53;20947;-74
2020/12/21 12:51:08;;;;;;;8.13;4.75;;;13.80;75.00;;;;;;2360793;53;20973;-74
2020/12/21 12:53:38;;;;;;;33.40;14.80;;;13.80;75.10;;;;;;2371714;53;21550;-74
2020/12/21 12:56:08;;;;;;;36.30;16.67;;;13.80;75.50;;;;;;2601791;52;21048;-74